Time;durP1;ratioP1;P1;durP2;ratioP2;P2;SDS_P1;SDS_P2;PMS_P1;PMS_P2;Temp;Humidity;BMP_temperature;BMP_pressure;BME280_temperature;BME280_humidity;BME280_pressure;Samples;Min_cycle;Max_cycle;Signal;HPM_P1;HPM_P2
2024/04/20 00:01:19;;;;;;;0.00;0.00;;;;;;;12.15;53.64;97543.75;5320281;26;20012;-74
2024/04/20 00:03:50;;;;;;;1.45;0.20;;;;;;;12.29;54.01;97563.78;5316761;26;20415;-74
2024/04/20 00:06:16;;;;;;;0.10;0.10;;;;;;;12.27;53.98;97553.53;5309149;26;20008;-74
2024/04/20 00:08:43;;;;;;;0.43;0.20;;;;;;;12.16;54.69;97561.81;5316337;26;20001;-72
2024/04/20 00:11:09;;;;;;;0.40;0.20;;;;;;;11.97;53.94;97502.41;5312999;26;20016;-72
2024/04/20 00:13:39;;;;;;;0.80;0.10;;;;;;;12.27;54.87;97545.72;5322931;26;20914;-77
2024/04/20 00:16:05;;;;;;;0.15;0.13;;;;;;;12.20;54.71;97528.38;5291355;26;20044;-73
2024/04/20 00:18:30;;;;;;;0.32;0.13;;;;;;;12.10;55.59;97505.19;5323003;26;20008;-74
2024/04/20 00:20:56;;;;;;;0.10;0.10;;;;;;;12.37;53.75;97555.84;5290508;26;20015;-73
2024/04/20 00:23:23;;;;;;;0.15;0.10;;;;;;;11.98;53.97;97510.06;5324518;26;20439;-73
2024/04/20 00:25:49;;;;;;;0.15;0.10;;;;;;;12.18;52.46;97538.19;5311921;26;20001;-73
2024/04/20 00:28:14;;;;;;;0.10;0.10;;;;;;;11.82;52.64;97497.97;5327693;26;20493;-73
2024/04/20 00:30:42;;;;;;;0.82;0.20;;;;;;;11.91;52.19;97486.50;5309284;26;20115;-76
2024/04/20 00:33:07;;;;;;;0.20;0.10;;;;;;;12.05;52.46;97531.78;5284788;26;20087;-76
2024/04/20 00:35:37;;;;;;;0.05;0.03;;;;;;;12.33;53.73;97570.22;5312829;26;20012;-75
2024/04/20 00:38:06;;;;;;;0.52;0.13;;;;;;;12.20;53.31;97554.44;5285083;26;22548;-76
2024/04/20 00:40:33;;;;;;;0.20;0.10;;;;;;;12.25;56.22;97549.50;5285414;26;20842;-74
2024/04/20 00:42:59;;;;;;;0.10;0.10;;;;;;;12.13;55.59;97577.00;5310704;26;21213;-76
2024/04/20 00:45:27;;;;;;;0.15;0.10;;;;;;;12.20;55.55;97583.09;5311447;26;20525;-73
2024/04/20 00:47:52;;;;;;;0.85;0.10;;;;;;;11.91;54.79;97580.28;5303399;26;20019;-72
2024/04/20 00:50:20;;;;;;;0.10;0.10;;;;;;;11.90;54.66;97559.63;5286028;26;20331;-73
2024/04/20 00:52:46;;;;;;;0.40;0.10;;;;;;;11.83;55.04;97564.72;5305526;26;20070;-73
2024/04/20 00:55:11;;;;;;;0.10;0.10;;;;;;;11.91;56.63;97561.25;5287099;26;20831;-75
2024/04/20 00:57:37;;;;;;;0.52;0.22;;;;;;;11.71;56.47;97525.28;5308894;26;20023;-74
2024/04/20 01:00:06;;;;;;;0.57;0.20;;;;;;;11.59;54.64;97518.91;5312789;26;20011;-73
2024/04/20 01:02:31;;;;;;;0.65;0.20;;;;;;;11.70;56.46;97522.84;5281841;26;20522;-73
2024/04/20 01:04:57;;;;;;;0.32;0.15;;;;;;;11.71;57.77;97525.28;5290565;26;20075;-76
2024/04/20 01:07:22;;;;;;;0.30;0.10;;;;;;;11.91;54.62;97537.81;5324496;26;20020;-72
2024/04/20 01:09:48;;;;;;;0.38;0.15;;;;;;;12.05;55.52;97565.66;5312259;26;20000;-72
2024/04/20 01:12:13;;;;;;;0.57;0.10;;;;;;;12.09;55.04;97558.31;5327202;26;20804;-71
2024/04/20 01:14:40;;;;;;;0.30;0.10;;;;;;;11.93;54.62;97549.66;5314324;26;20441;-72
2024/04/20 01:17:06;;;;;;;0.22;0.20;;;;;;;12.09;52.43;97550.47;5317318;26;20000;-72
2024/04/20 01:19:33;;;;;;;1.17;0.20;;;;;;;12.29;53.43;97564.56;5316342;26;20042;-74
2024/04/20 01:21:59;;;;;;;0.75;0.17;;;;;;;12.13;52.51;97543.91;5289155;26;20060;-77
2024/04/20 01:24:25;;;;;;;0.20;0.13;;;;;;;12.13;52.89;97540.50;5291308;26;20001;-73
2024/04/20 01:26:50;;;;;;;1.13;0.30;;;;;;;12.03;53.96;97539.00;5314158;26;20015;-73
2024/04/20 01:29:19;;;;;;;0.65;0.25;;;;;;;12.03;54.00;97518.16;5302864;26;20009;-74
2024/04/20 01:31:44;;;;;;;0.70;0.10;;;;;;;12.11;55.64;97533.66;5306894;26;20005;-73
2024/04/20 01:34:10;;;;;;;0.10;0.10;;;;;;;12.08;51.86;97541.03;5281537;26;20899;-73
2024/04/20 01:36:35;;;;;;;0.25;0.10;;;;;;;12.08;52.48;97534.06;5358711;26;20001;-74
2024/04/20 01:39:05;;;;;;;1.08;0.20;;;;;;;12.06;53.28;97509.94;5293933;26;20015;-75
2024/04/20 01:41:31;;;;;;;0.38;0.15;;;;;;;11.67;52.40;97458.94;5319192;26;20012;-75
2024/04/20 01:43:56;;;;;;;0.17;0.10;;;;;;;11.78;52.88;97464.69;5318095;26;20452;-76
2024/04/20 01:46:21;;;;;;;0.10;0.10;;;;;;;12.06;51.15;97504.75;5312667;26;20004;-77
2024/04/20 01:48:47;;;;;;;0.25;0.10;;;;;;;12.14;50.67;97503.03;5313867;26;20012;-75
2024/04/20 01:51:12;;;;;;;0.40;0.20;;;;;;;12.09;51.06;97488.75;5319315;26;20110;-73
2024/04/20 01:53:40;;;;;;;2.45;0.10;;;;;;;12.07;50.45;97489.94;5286027;26;21843;-73
2024/04/20 01:56:08;;;;;;;1.45;0.20;;;;;;;12.11;49.77;97473.75;5322303;26;20472;-74
2024/04/20 01:58:34;;;;;;;0.10;0.10;;;;;;;11.90;50.02;97452.84;5319392;26;20020;-71
2024/04/20 02:00:59;;;;;;;0.25;0.13;;;;;;;12.02;50.21;97482.66;5309824;26;19997;-74
2024/04/20 02:03:24;;;;;;;0.60;0.20;;;;;;;12.00;49.14;97478.63;5325406;26;20010;-75
2024/04/20 02:05:52;;;;;;;0.20;0.10;;;;;;;12.03;48.51;97496.47;5317274;26;20405;-75
2024/04/20 02:08:18;;;;;;;0.35;0.10;;;;;;;11.80;48.08;97441.88;5297464;26;19997;-75
2024/04/20 02:10:43;;;;;;;1.00;0.10;;;;;;;12.15;48.05;97497.63;5295050;26;20016;-75
2024/04/20 02:13:08;;;;;;;0.15;0.10;;;;;;;12.07;48.88;97505.56;5308285;26;20194;-73
2024/04/20 02:15:34;;;;;;;0.57;0.17;;;;;;;12.07;48.71;97497.75;5287529;26;20028;-74
2024/04/20 02:18:02;;;;;;;0.35;0.20;;;;;;;12.23;47.06;97509.75;5301277;26;20011;-76
2024/04/20 02:20:32;;;;;;;0.85;0.10;;;;;;;11.60;48.62;97415.56;5325580;26;20051;-74
2024/04/20 02:22:58;;;;;;;0.40;0.10;;;;;;;12.04;48.34;97511.13;5301190;26;20853;-73
2024/04/20 02:25:25;;;;;;;1.95;0.20;;;;;;;12.01;49.19;97499.28;5290296;26;20077;-75
2024/04/20 02:27:53;;;;;;;0.30;0.20;;;;;;;11.80;48.65;97465.31;5328083;26;20060;-72
2024/04/20 02:30:20;;;;;;;0.28;0.10;;;;;;;12.06;48.55;97530.00;5295109;26;19996;-75
2024/04/20 02:32:45;;;;;;;0.35;0.10;;;;;;;12.05;44.57;97531.00;5284207;26;20006;-74
2024/04/20 02:35:10;;;;;;;0.50;0.20;;;;;;;12.01;46.80;97522.72;5321165;26;20758;-75
2024/04/20 02:37:37;;;;;;;0.30;0.10;;;;;;;11.97;42.68;97502.41;5296375;26;20518;-72
2024/04/20 02:40:07;;;;;;;0.28;0.15;;;;;;;11.88;42.19;97522.50;5313362;26;20049;-76
2024/04/20 02:42:33;;;;;;;0.40;0.10;;;;;;;12.02;42.53;97524.34;5314221;26;20017;-73
2024/04/20 02:45:03;;;;;;;0.20;0.10;;;;;;;11.89;43.95;97530.13;5319101;26;20020;-74
2024/04/20 02:47:28;;;;;;;1.75;0.38;;;;;;;11.53;42.87;97457.13;5319463;26;20016;-76
2024/04/20 02:49:56;;;;;;;2.55;0.30;;;;;;;11.94;43.92;97527.03;5316489;26;19997;-75
2024/04/20 02:52:22;;;;;;;0.32;0.13;;;;;;;11.84;44.32;97506.41;5344077;26;20086;-76
2024/04/20 02:54:52;;;;;;;0.20;0.10;;;;;;;11.80;43.82;97515.59;5287831;26;20439;-73
2024/04/20 02:57:17;;;;;;;0.45;0.13;;;;;;;11.92;44.36;97523.81;5308857;26;20006;-76
2024/04/20 02:59:45;;;;;;;1.15;0.30;;;;;;;11.88;45.77;97512.09;5308077;26;20041;-76
2024/04/20 03:02:12;;;;;;;1.00;0.20;;;;;;;11.63;45.34;97478.50;5319599;26;20001;-73
2024/04/20 03:04:37;;;;;;;1.25;0.17;;;;;;;11.81;44.76;97524.19;5289670;26;19998;-73
2024/04/20 03:07:03;;;;;;;0.80;0.20;;;;;;;11.62;43.85;97487.28;5319305;26;20111;-73
2024/04/20 03:09:28;;;;;;;0.50;0.20;;;;;;;12.00;44.31;97528.91;5322622;26;20005;-76
2024/04/20 03:11:56;;;;;;;0.10;0.10;;;;;;;11.88;43.99;97514.69;5312578;26;19998;-73
2024/04/20 03:14:21;;;;;;;1.98;0.30;;;;;;;11.48;42.81;97472.47;5286843;26;20079;-74
2024/04/20 03:16:47;;;;;;;0.38;0.15;;;;;;;11.83;44.35;97522.25;5345874;26;19994;-75
2024/04/20 03:19:15;;;;;;;0.77;0.20;;;;;;;11.47;47.44;97481.28;5314489;26;20712;-75
2024/04/20 03:21:40;;;;;;;0.90;0.20;;;;;;;11.76;47.49;97527.34;5322992;26;20073;-73
2024/04/20 03:24:06;;;;;;;0.38;0.10;;;;;;;11.82;47.87;97533.66;5291325;26;20002;-74
2024/04/20 03:26:31;;;;;;;0.63;0.30;;;;;;;11.73;45.47;97530.31;5332668;26;20723;-73
2024/04/20 03:29:01;;;;;;;0.10;0.10;;;;;;;11.76;42.93;97513.53;5330367;26;20574;-77
2024/04/20 03:31:29;;;;;;;0.85;0.28;;;;;;;11.86;42.06;97527.88;5319407;26;19997;-74
2024/04/20 03:33:57;;;;;;;0.30;0.20;;;;;;;11.81;42.02;97516.38;5319215;26;19997;-74
2024/04/20 03:36:23;;;;;;;0.52;0.10;;;;;;;11.86;42.52;97527.09;5316656;26;20466;-73
2024/04/20 03:38:48;;;;;;;0.75;0.30;;;;;;;11.64;40.07;97485.31;5327626;26;19998;-73
2024/04/20 03:41:14;;;;;;;0.30;0.10;;;;;;;12.15;40.71;97533.31;5317868;26;20002;-72
2024/04/20 03:43:40;;;;;;;1.60;0.28;;;;;;;11.96;39.86;97525.06;5352431;26;20871;-76
2024/04/20 03:46:07;;;;;;;0.88;0.20;;;;;;;11.70;39.39;97469.00;5289061;26;20001;-74
2024/04/20 03:48:33;;;;;;;0.82;0.20;;;;;;;12.07;38.96;97526.41;5295790;26;20009;-75
2024/04/20 03:50:59;;;;;;;3.97;0.38;;;;;;;12.06;37.73;97525.59;5294541;26;20012;-74
2024/04/20 03:53:25;;;;;;;0.43;0.20;;;;;;;12.06;36.97;97522.97;5283086;26;22183;-73
2024/04/20 03:55:54;;;;;;;0.55;0.10;;;;;;;11.82;38.01;97492.78;5312075;26;20013;-73
2024/04/20 03:58:19;;;;;;;2.28;0.40;;;;;;;12.14;37.37;97534.28;5337226;26;20795;-74
2024/04/20 04:00:48;;;;;;;1.02;0.30;;;;;;;12.18;37.04;97543.38;5319239;26;20171;-75
2024/04/20 04:03:22;;;;;;;0.20;0.13;;;;;;;12.11;38.45;97541.47;5318695;26;20075;-75
2024/04/20 04:05:48;;;;;;;0.43;0.38;;;;;;;11.80;37.21;97505.16;5304836;26;20008;-74
2024/04/20 04:08:13;;;;;;;1.38;0.20;;;;;;;12.08;39.06;97556.66;5296421;26;20016;-74
2024/04/20 04:10:39;;;;;;;1.65;0.38;;;;;;;11.95;40.74;97539.06;5319917;26;20364;-74
2024/04/20 04:13:04;;;;;;;1.75;0.30;;;;;;;12.19;40.33;97563.22;5288065;26;20038;-72
2024/04/20 04:15:30;;;;;;;0.57;0.20;;;;;;;12.23;37.88;97554.88;5285167;26;20328;-73
2024/04/20 04:17:58;;;;;;;0.20;0.17;;;;;;;12.20;39.91;97559.66;5286072;26;20004;-74
2024/04/20 04:20:26;;;;;;;0.73;0.13;;;;;;;12.19;39.07;97550.19;5301239;26;20037;-72
2024/04/20 04:22:52;;;;;;;1.95;0.20;;;;;;;11.84;38.23;97522.06;5315442;26;20001;-74
2024/04/20 04:25:17;;;;;;;0.35;0.17;;;;;;;12.03;41.05;97569.41;5300894;26;20092;-75
2024/04/20 04:27:45;;;;;;;0.90;0.38;;;;;;;12.25;37.95;97557.31;5308437;26;20396;-73
2024/04/20 04:30:10;;;;;;;0.40;0.20;;;;;;;12.15;41.68;97560.19;5320406;26;20005;-74
2024/04/20 04:32:38;;;;;;;0.10;0.10;;;;;;;11.86;39.88;97524.47;5317826;26;20001;-75
2024/04/20 04:35:04;;;;;;;1.42;0.52;;;;;;;11.93;39.63;97564.50;5285851;26;19998;-74
2024/04/20 04:37:31;;;;;;;0.10;0.03;;;;;;;11.87;39.08;97567.78;5288934;26;20052;-74
2024/04/20 04:39:57;;;;;;;0.70;0.25;;;;;;;11.70;37.33;97554.09;5319377;26;20032;-74
2024/04/20 04:42:29;;;;;;;0.52;0.35;;;;;;;11.76;37.33;97552.59;5293075;26;20452;-72
2024/04/20 04:44:55;;;;;;;0.20;0.10;;;;;;;11.84;39.00;97576.75;5304506;26;20013;-74
2024/04/20 04:47:21;;;;;;;0.70;0.20;;;;;;;11.96;39.85;97587.59;5316780;26;20011;-77
2024/04/20 04:49:49;;;;;;;0.10;0.10;;;;;;;11.78;39.28;97593.09;5293445;26;19993;-74
2024/04/20 04:52:18;;;;;;;0.73;0.20;;;;;;;11.96;40.77;97579.78;5295190;26;20026;-73
2024/04/20 04:54:43;;;;;;;1.52;0.20;;;;;;;11.85;40.26;97583.59;5290931;26;20008;-72
2024/04/20 04:57:09;;;;;;;0.28;0.10;;;;;;;11.64;35.83;97586.06;5301054;26;19993;-73
2024/04/20 04:59:39;;;;;;;1.38;0.20;;;;;;;11.72;34.45;97579.00;5295692;26;19997;-72
2024/04/20 05:02:05;;;;;;;2.40;0.30;;;;;;;11.82;39.74;97594.34;5293364;26;20005;-72
2024/04/20 05:04:32;;;;;;;0.20;0.10;;;;;;;11.62;39.01;97549.78;5315036;26;20016;-73
2024/04/20 05:06:59;;;;;;;1.02;0.20;;;;;;;11.94;39.37;97602.59;5287125;26;20083;-74
2024/04/20 05:09:27;;;;;;;1.55;0.20;;;;;;;11.99;38.92;97594.22;5307739;26;20019;-74
2024/04/20 05:11:53;;;;;;;0.80;0.25;;;;;;;11.98;36.17;97603.84;5313530;26;20012;-72
2024/04/20 05:14:19;;;;;;;0.43;0.15;;;;;;;11.79;38.28;97578.28;5313716;26;20004;-76
2024/04/20 05:16:46;;;;;;;0.50;0.20;;;;;;;11.82;38.70;97611.78;5284639;26;19998;-74
2024/04/20 05:19:12;;;;;;;0.80;0.20;;;;;;;11.81;39.13;97612.75;5305520;26;20406;-75
2024/04/20 05:21:40;;;;;;;1.20;0.30;;;;;;;11.86;37.16;97613.84;5316955;26;20013;-73
2024/04/20 05:24:07;;;;;;;0.15;0.10;;;;;;;11.97;38.23;97611.81;5284511;26;20628;-74
2024/04/20 05:26:35;;;;;;;2.13;0.32;;;;;;;11.69;38.88;97605.38;5293718;26;20477;-75
2024/04/20 05:29:00;;;;;;;0.90;0.20;;;;;;;11.77;38.23;97604.47;5290166;26;20095;-73
2024/04/20 05:31:27;;;;;;;0.28;0.10;;;;;;;11.84;36.35;97621.03;5304848;26;20027;-76
2024/04/20 05:33:54;;;;;;;0.13;0.10;;;;;;;11.80;33.62;97605.94;5308861;26;19997;-73
2024/04/20 05:36:25;;;;;;;0.75;0.20;;;;;;;12.06;33.80;97629.81;5307160;26;20002;-73
2024/04/20 05:38:54;;;;;;;0.77;0.30;;;;;;;11.94;35.76;97615.63;5304178;26;20002;-73
2024/04/20 05:41:19;;;;;;;0.52;0.13;;;;;;;11.96;33.76;97633.69;5310811;26;20001;-75
2024/04/20 05:43:45;;;;;;;0.73;0.20;;;;;;;12.04;32.41;97636.19;5316119;26;20079;-73
2024/04/20 05:46:15;;;;;;;0.68;0.30;;;;;;;11.89;34.34;97623.91;5309918;26;19994;-73
2024/04/20 05:48:43;;;;;;;0.10;0.10;;;;;;;11.86;35.82;97616.44;5318636;26;20103;-73
2024/04/20 05:51:10;;;;;;;0.30;0.10;;;;;;;11.91;35.35;97634.19;5301714;26;20033;-73
2024/04/20 05:53:38;;;;;;;1.10;0.30;;;;;;;11.98;35.72;97618.66;5294959;26;20027;-72
2024/04/20 05:56:04;;;;;;;0.30;0.20;;;;;;;12.19;34.32;97655.25;5306788;26;20473;-75
2024/04/20 05:58:29;;;;;;;1.67;0.30;;;;;;;12.23;35.08;97666.94;5292460;26;20001;-73
2024/04/20 06:00:55;;;;;;;0.93;0.20;;;;;;;12.08;33.88;97651.31;5323206;26;20439;-73
2024/04/20 06:03:20;;;;;;;1.05;0.10;;;;;;;12.08;35.17;97653.91;5316893;26;20009;-74
2024/04/20 06:05:47;;;;;;;0.77;0.20;;;;;;;11.99;31.78;97660.19;5305080;26;20192;-74
2024/04/20 06:08:13;;;;;;;0.93;0.20;;;;;;;11.88;33.83;97653.56;5296582;26;20000;-75
2024/04/20 06:10:38;;;;;;;0.35;0.20;;;;;;;11.95;35.16;97668.50;5320524;26;20366;-73
2024/04/20 06:13:04;;;;;;;0.47;0.20;;;;;;;11.98;36.01;97658.56;5318771;26;20004;-74
2024/04/20 06:15:33;;;;;;;2.42;0.30;;;;;;;11.93;34.40;97674.69;5324188;26;20001;-73
2024/04/20 06:18:02;;;;;;;0.20;0.20;;;;;;;12.02;32.76;97675.44;5312247;26;20017;-73
2024/04/20 06:20:27;;;;;;;0.80;0.20;;;;;;;11.81;32.88;97660.47;5294415;26;20000;-74
2024/04/20 06:22:53;;;;;;;0.85;0.30;;;;;;;11.93;33.54;97679.09;5289943;26;20475;-74
2024/04/20 06:25:18;;;;;;;4.03;0.30;;;;;;;11.77;32.83;97660.97;5303497;26;20000;-75
2024/04/20 06:27:46;;;;;;;0.65;0.20;;;;;;;11.94;36.27;97683.34;5325124;26;20023;-76
2024/04/20 06:30:13;;;;;;;1.13;0.35;;;;;;;11.96;33.48;97686.56;5289180;26;20231;-73
2024/04/20 06:32:43;;;;;;;0.38;0.20;;;;;;;12.04;32.44;97685.69;5339910;26;20457;-74
2024/04/20 06:35:08;;;;;;;0.60;0.20;;;;;;;12.01;32.55;97673.00;5293764;26;20078;-75
2024/04/20 06:37:36;;;;;;;1.42;0.20;;;;;;;11.96;30.52;97683.97;5325226;26;20024;-74
2024/04/20 06:40:01;;;;;;;0.10;0.10;;;;;;;11.84;33.19;97670.50;5316002;26;20013;-74
2024/04/20 06:42:27;;;;;;;0.38;0.17;;;;;;;11.98;37.15;97689.00;5287560;26;20509;-73
2024/04/20 06:44:52;;;;;;;0.50;0.10;;;;;;;11.83;34.48;97679.31;5318703;26;20024;-74
2024/04/20 06:47:17;;;;;;;1.13;0.40;;;;;;;11.94;34.95;97678.13;5323235;26;20024;-77
2024/04/20 06:49:43;;;;;;;1.40;0.20;;;;;;;11.88;32.97;97665.75;5285844;26;20019;-74
2024/04/20 06:52:09;;;;;;;0.73;0.20;;;;;;;12.05;34.50;97688.13;5293008;26;20001;-75
2024/04/20 06:54:34;;;;;;;5.05;0.20;;;;;;;12.03;34.30;97682.28;5326354;26;20012;-75
2024/04/20 06:57:04;;;;;;;0.93;0.30;;;;;;;12.09;35.41;97683.38;5319243;26;20127;-73
2024/04/20 06:59:30;;;;;;;1.38;0.28;;;;;;;12.11;35.32;97691.81;5312874;26;20086;-73
2024/04/20 07:01:57;;;;;;;1.35;0.30;;;;;;;11.75;37.08;97661.16;5316957;26;20451;-75
2024/04/20 07:04:28;;;;;;;0.20;0.20;;;;;;;11.80;34.54;97637.19;5352855;26;20013;-72
2024/04/20 07:06:58;;;;;;;0.65;0.30;;;;;;;12.25;36.23;97696.25;5290127;26;20056;-75
2024/04/20 07:09:24;;;;;;;0.28;0.20;;;;;;;12.26;36.79;97697.84;5294912;26;20079;-75
2024/04/20 07:11:49;;;;;;;1.48;0.52;;;;;;;12.29;36.79;97699.31;5302376;26;20589;-75
2024/04/20 07:14:14;;;;;;;1.48;0.40;;;;;;;12.13;35.35;97713.28;5283777;26;20001;-77
2024/04/20 07:16:40;;;;;;;0.25;0.10;;;;;;;12.16;37.43;97696.50;5291886;26;20480;-73
2024/04/20 07:19:05;;;;;;;0.75;0.20;;;;;;;12.24;36.48;97702.44;5317720;26;20005;-74
2024/04/20 07:21:31;;;;;;;0.60;0.15;;;;;;;12.34;34.54;97704.81;5295291;26;20071;-73
2024/04/20 07:23:59;;;;;;;0.30;0.13;;;;;;;12.16;36.81;97649.59;5320315;26;20012;-74
2024/04/20 07:26:28;;;;;;;2.67;0.30;;;;;;;12.37;33.00;97698.41;5321108;26;20063;-75
2024/04/20 07:28:57;;;;;;;0.52;0.20;;;;;;;12.59;31.07;97696.72;5327905;26;20114;-72
2024/04/20 07:31:22;;;;;;;2.65;0.55;;;;;;;12.26;34.03;97632.69;5319982;26;19997;-75
2024/04/20 07:33:48;;;;;;;0.93;0.32;;;;;;;12.49;31.42;97697.78;5281011;26;20002;-75
2024/04/20 07:36:16;;;;;;;1.50;0.43;;;;;;;12.61;31.15;97703.38;5293038;26;20011;-74
2024/04/20 07:38:44;;;;;;;1.42;0.30;;;;;;;12.55;28.62;97685.03;5322815;26;20607;-76
2024/04/20 07:41:11;;;;;;;1.77;0.40;;;;;;;12.68;28.63;97693.03;5289833;26;19997;-73
2024/04/20 07:43:42;;;;;;;1.77;0.55;;;;;;;12.76;26.26;97707.78;5327508;26;20462;-73
2024/04/20 07:46:12;;;;;;;1.23;0.25;;;;;;;12.90;27.18;97727.81;5312813;26;20407;-73
2024/04/20 07:48:38;;;;;;;1.63;0.20;;;;;;;12.75;25.68;97714.00;5318253;26;20000;-71
2024/04/20 07:51:06;;;;;;;2.63;0.30;;;;;;;12.83;25.24;97729.53;5307517;26;21835;-74
2024/04/20 07:53:32;;;;;;;2.08;0.40;;;;;;;12.84;26.60;97711.09;5315184;26;20102;-73
2024/04/20 07:56:00;;;;;;;1.83;0.32;;;;;;;12.83;24.46;97719.09;5311099;26;20546;-72
2024/04/20 07:58:27;;;;;;;0.68;0.28;;;;;;;12.67;25.76;97702.66;5312607;26;20024;-80
2024/04/20 08:00:53;;;;;;;1.83;0.40;;;;;;;12.62;25.74;97678.91;5317375;26;19993;-77
2024/04/20 08:03:19;;;;;;;4.57;0.70;;;;;;;12.83;23.92;97714.72;5344193;26;20013;-77
2024/04/20 08:05:47;;;;;;;2.25;0.68;;;;;;;12.89;24.54;97719.19;5323618;26;20084;-76
2024/04/20 08:08:14;;;;;;;2.78;0.40;;;;;;;12.92;23.87;97751.13;5317913;26;19997;-74
2024/04/20 08:10:40;;;;;;;0.40;0.10;;;;;;;12.88;24.86;97742.84;5315858;26;20002;-77
2024/04/20 08:13:07;;;;;;;1.45;0.40;;;;;;;12.89;24.35;97739.28;5309242;26;20557;-77
2024/04/20 08:15:33;;;;;;;1.42;0.40;;;;;;;12.85;23.35;97771.91;5316766;26;20001;-73
2024/04/20 08:18:00;;;;;;;0.55;0.20;;;;;;;12.90;24.82;97772.19;5292228;26;20001;-76
2024/04/20 08:20:26;;;;;;;3.25;0.85;;;;;;;13.15;23.57;97744.00;5339913;26;20009;-77
2024/04/20 08:22:51;;;;;;;3.65;1.05;;;;;;;14.09;22.67;97751.06;5318776;26;20418;-74
2024/04/20 08:25:17;;;;;;;2.90;0.80;;;;;;;14.67;21.81;97744.84;5303347;26;20719;-74
2024/04/20 08:27:42;;;;;;;6.75;2.13;;;;;;;15.12;21.46;97753.97;5308271;26;20172;-75
2024/04/20 08:30:08;;;;;;;6.60;1.45;;;;;;;15.86;21.13;97762.91;5310497;26;20041;-75
2024/04/20 08:32:33;;;;;;;1.80;0.40;;;;;;;15.93;20.93;97748.00;5305864;26;20079;-76
2024/04/20 08:34:59;;;;;;;2.63;0.80;;;;;;;16.33;20.54;97763.72;5314478;26;20553;-76
2024/04/20 08:37:26;;;;;;;0.52;0.22;;;;;;;16.11;22.62;97770.19;5350799;26;20116;-74
2024/04/20 08:39:54;;;;;;;0.30;0.17;;;;;;;16.18;20.49;97763.13;5313635;26;20074;-73
2024/04/20 08:42:28;;;;;;;0.45;0.20;;;;;;;16.28;20.09;97757.47;5311761;26;20020;-72
2024/04/20 08:45:01;;;;;;;2.85;0.38;;;;;;;16.34;19.11;97781.09;5287771;26;20892;-72
2024/04/20 08:47:30;;;;;;;2.90;0.55;;;;;;;16.45;19.62;97792.78;5316627;26;20020;-71
2024/04/20 08:49:57;;;;;;;2.20;0.50;;;;;;;16.68;19.99;97765.31;5319158;26;20086;-72
2024/04/20 08:52:25;;;;;;;1.60;0.50;;;;;;;16.30;21.12;97771.19;5323500;26;20238;-72
2024/04/20 08:54:51;;;;;;;3.08;0.40;;;;;;;15.91;19.03;97806.84;5285937;26;20047;-72
2024/04/20 08:57:16;;;;;;;1.30;0.40;;;;;;;15.60;18.90;97794.25;5312822;26;20487;-73
2024/04/20 08:59:42;;;;;;;1.40;0.50;;;;;;;15.34;19.25;97796.56;5281705;26;20045;-73
2024/04/20 09:02:15;;;;;;;0.47;0.20;;;;;;;15.03;21.24;97804.88;5287038;26;20007;-74
2024/04/20 09:04:42;;;;;;;0.47;0.20;;;;;;;14.66;19.72;97808.63;5281992;26;20023;-73
2024/04/20 09:07:08;;;;;;;3.83;0.25;;;;;;;14.54;20.06;97792.63;5298325;26;20078;-74
2024/04/20 09:09:34;;;;;;;0.20;0.15;;;;;;;14.52;20.46;97824.22;5304753;26;20005;-71
2024/04/20 09:12:01;;;;;;;1.23;0.15;;;;;;;14.63;19.97;97817.69;5290272;26;19997;-72
2024/04/20 09:14:29;;;;;;;0.10;0.10;;;;;;;14.55;22.38;97817.81;5319121;26;19993;-72
2024/04/20 09:16:54;;;;;;;1.55;0.20;;;;;;;14.55;21.98;97823.84;5325346;26;20787;-71
2024/04/20 09:19:20;;;;;;;0.55;0.10;;;;;;;14.63;22.26;97828.16;5313604;26;20021;-72
2024/04/20 09:21:47;;;;;;;0.30;0.10;;;;;;;14.58;21.33;97826.13;5289132;26;20839;-72
2024/04/20 09:24:15;;;;;;;0.20;0.10;;;;;;;14.35;20.51;97815.81;5273493;26;20070;-72
2024/04/20 09:26:40;;;;;;;2.08;0.20;;;;;;;14.34;21.31;97806.34;5321153;26;20000;-71
2024/04/20 09:29:08;;;;;;;0.10;0.10;;;;;;;14.43;20.84;97846.25;5305703;26;21127;-71
2024/04/20 09:31:33;;;;;;;0.57;0.20;;;;;;;14.63;22.43;97841.22;5318535;26;20001;-71
2024/04/20 09:33:59;;;;;;;0.65;0.10;;;;;;;14.68;24.80;97819.75;5313329;26;20976;-71
2024/04/20 09:36:25;;;;;;;0.28;0.20;;;;;;;14.67;23.14;97837.22;5286554;26;20002;-71
2024/04/20 09:38:50;;;;;;;1.55;0.40;;;;;;;14.60;24.31;97847.66;5318801;26;19997;-71
2024/04/20 09:41:19;;;;;;;2.05;0.60;;;;;;;14.69;24.81;97834.44;5330327;26;20915;-72
2024/04/20 09:43:50;;;;;;;0.40;0.20;;;;;;;14.63;21.77;97832.59;5312625;26;20016;-72
2024/04/20 09:46:19;;;;;;;0.45;0.20;;;;;;;14.73;22.10;97831.25;5321831;26;20017;-71
2024/04/20 09:48:44;;;;;;;0.40;0.20;;;;;;;14.62;20.67;97857.94;5306065;26;20065;-71
2024/04/20 09:51:20;;;;;;;0.80;0.30;;;;;;;14.71;20.68;97877.75;5282400;26;20505;-74
2024/04/20 09:53:51;;;;;;;1.00;0.13;;;;;;;14.74;19.71;97856.41;5305359;26;20013;-71
2024/04/20 09:56:21;;;;;;;0.52;0.10;;;;;;;14.85;22.66;97859.50;5301448;26;20015;-72
2024/04/20 09:58:49;;;;;;;;;;;;;;;14.74;22.31;97853.00;5308753;26;20076;-72
2024/04/20 10:01:16;;;;;;;0.80;0.20;;;;;;;14.51;23.27;97824.38;5312509;26;19925;-71
2024/04/20 10:03:42;;;;;;;0.30;0.10;;;;;;;14.61;23.12;97880.66;5310571;26;20001;-71
2024/04/20 10:06:11;;;;;;;1.52;0.17;;;;;;;14.63;24.11;97872.63;5286827;26;20019;-70
2024/04/20 10:08:41;;;;;;;0.77;0.20;;;;;;;14.56;22.29;97871.72;5313082;26;20491;-71
2024/04/20 10:11:07;;;;;;;0.10;0.10;;;;;;;14.69;24.74;97852.75;5297510;26;20044;-71
2024/04/20 10:13:33;;;;;;;0.43;0.17;;;;;;;14.72;24.29;97871.50;5268218;26;20340;-73
2024/04/20 10:16:00;;;;;;;0.10;0.10;;;;;;;14.33;25.53;97823.06;5313099;26;20091;-71
2024/04/20 10:18:26;;;;;;;0.60;0.13;;;;;;;14.43;25.57;97826.13;5312841;26;20005;-72
2024/04/20 10:20:58;;;;;;;0.45;0.20;;;;;;;14.86;24.17;97866.34;5285229;26;20546;-71
2024/04/20 10:23:24;;;;;;;0.38;0.15;;;;;;;14.88;23.53;97880.09;5302695;26;20025;-70
2024/04/20 10:25:50;;;;;;;0.40;0.10;;;;;;;14.75;24.06;97860.66;5279894;26;20078;-71
2024/04/20 10:28:35;;;;;;;0.43;0.13;;;;;;;14.86;23.58;97875.03;5283808;26;20087;-71
2024/04/20 10:31:02;;;;;;;0.65;0.20;;;;;;;14.82;23.52;97872.97;5308814;26;20005;-72
2024/04/20 10:33:30;;;;;;;0.38;0.10;;;;;;;14.85;25.07;97867.38;5313590;26;20069;-71
2024/04/20 10:36:02;;;;;;;0.68;0.20;;;;;;;14.66;23.90;97853.09;5310546;26;20004;-71
2024/04/20 10:38:31;;;;;;;0.20;0.10;;;;;;;15.08;26.77;97882.84;5302640;26;20494;-71
2024/04/20 10:41:08;;;;;;;0.40;0.10;;;;;;;14.99;25.38;97879.56;5308758;26;20470;-71
2024/04/20 10:43:36;;;;;;;2.85;0.22;;;;;;;14.80;24.33;97867.91;5313286;26;20070;-71
2024/04/20 10:46:05;;;;;;;0.35;0.10;;;;;;;14.59;24.23;97887.88;5307519;26;20015;-71
2024/04/20 10:48:34;;;;;;;0.30;0.15;;;;;;;14.55;25.09;97911.97;5299669;26;20036;-71
2024/04/20 10:51:01;;;;;;;0.50;0.10;;;;;;;14.52;25.24;97897.44;5308941;26;20001;-71
2024/04/20 10:53:30;;;;;;;0.95;0.20;;;;;;;14.85;26.23;97891.72;5310284;26;19997;-71
2024/04/20 10:55:59;;;;;;;0.85;0.20;;;;;;;14.86;25.97;97890.72;5310654;26;20048;-71
2024/04/20 10:58:26;;;;;;;0.40;0.10;;;;;;;14.96;27.32;97895.63;5266881;26;20018;-70
2024/04/20 11:00:51;;;;;;;0.40;0.20;;;;;;;14.91;27.33;97900.63;5299891;26;20007;-71
2024/04/20 11:03:17;;;;;;;1.42;0.30;;;;;;;14.98;28.17;97904.09;5297098;26;20528;-70
2024/04/20 11:05:56;;;;;;;0.30;0.20;;;;;;;14.98;30.43;97911.94;5283472;26;20012;-70
2024/04/20 11:08:27;;;;;;;1.00;0.30;;;;;;;15.04;30.75;97911.22;5311752;26;20362;-70
2024/04/20 11:11:03;;;;;;;1.80;0.50;;;;;;;15.11;30.12;97911.25;5312940;26;20398;-70
2024/04/20 11:13:29;;;;;;;1.15;0.30;;;;;;;15.07;28.33;97871.53;5299326;26;20026;-70
2024/04/20 11:15:55;;;;;;;0.95;0.30;;;;;;;14.93;26.24;97902.06;5311337;26;20140;-70
2024/04/20 11:18:21;;;;;;;0.43;0.20;;;;;;;15.24;28.56;97897.44;5308849;26;20008;-70
2024/04/20 11:20:49;;;;;;;2.35;0.43;;;;;;;14.68;26.94;97830.22;5309012;26;20059;-71
2024/04/20 11:23:15;;;;;;;1.67;0.32;;;;;;;15.11;26.13;97901.59;5283456;26;20005;-70
2024/04/20 11:25:54;;;;;;;0.30;0.10;;;;;;;14.83;27.70;97938.22;5287250;26;20001;-70
2024/04/20 11:28:23;;;;;;;0.55;0.20;;;;;;;14.83;27.10;97921.72;5282127;26;20016;-70
2024/04/20 11:30:49;;;;;;;0.80;0.20;;;;;;;14.91;26.85;97908.47;5310919;26;20001;-70
2024/04/20 11:33:17;;;;;;;1.48;0.20;;;;;;;14.98;28.84;97909.34;5308944;26;20250;-69